Time;durP1;ratioP1;P1;durP2;ratioP2;P2;SDS_P1;SDS_P2;PMS_P1;PMS_P2;Temp;Humidity;BMP_temperature;BMP_pressure;BME280_temperature;BME280_humidity;BME280_pressure;Samples;Min_cycle;Max_cycle;Signal;HPM_P1;HPM_P2
2022/11/15 00:00:19;;;;;;;4.32;2.70;;;11.20;99.90;;;;;;5073898;28;20041;-77
2022/11/15 00:02:45;;;;;;;4.88;3.08;;;11.20;99.90;;;;;;5073694;28;20178;-76
2022/11/15 00:05:11;;;;;;;4.38;3.10;;;11.10;99.90;;;;;;5089110;28;20040;-76
2022/11/15 00:07:37;;;;;;;5.15;3.38;;;11.20;99.90;;;;;;5072198;28;20044;-76
2022/11/15 00:10:03;;;;;;;6.43;3.95;;;11.20;99.90;;;;;;5073537;28;20043;-76
2022/11/15 00:12:29;;;;;;;5.57;3.80;;;11.20;99.90;;;;;;5073535;28;20045;-74
2022/11/15 00:14:55;;;;;;;4.55;3.13;;;11.10;99.90;;;;;;5073611;28;20025;-76
2022/11/15 00:17:21;;;;;;;4.88;3.40;;;11.00;99.90;;;;;;5067783;28;20400;-76
2022/11/15 00:19:46;;;;;;;5.45;3.42;;;11.00;99.90;;;;;;5050289;28;20091;-77
2022/11/15 00:22:12;;;;;;;5.85;3.53;;;11.00;99.90;;;;;;5052732;28;20057;-77
2022/11/15 00:24:38;;;;;;;5.25;3.33;;;11.00;99.90;;;;;;5053985;28;20028;-78
2022/11/15 00:27:03;;;;;;;4.85;2.92;;;10.90;99.90;;;;;;5054020;28;20118;-78
2022/11/15 00:29:29;;;;;;;5.30;3.45;;;11.10;99.90;;;;;;5053937;28;20041;-78
2022/11/15 00:31:55;;;;;;;4.97;3.03;;;11.00;99.90;;;;;;5052798;28;20048;-78
2022/11/15 00:34:21;;;;;;;4.18;3.38;;;10.90;99.90;;;;;;5051748;28;20476;-78
2022/11/15 00:36:47;;;;;;;6.35;3.90;;;10.90;99.90;;;;;;5050500;28;20392;-77
2022/11/15 00:39:12;;;;;;;5.97;3.60;;;10.90;99.90;;;;;;5052129;28;20056;-77
2022/11/15 00:41:38;;;;;;;6.22;3.65;;;10.80;99.90;;;;;;5071886;28;20416;-77
2022/11/15 00:44:04;;;;;;;5.88;3.80;;;10.90;99.90;;;;;;5073411;28;20040;-78
2022/11/15 00:46:30;;;;;;;5.72;4.05;;;10.90;99.90;;;;;;5076090;28;20376;-77
2022/11/15 00:48:55;;;;;;;7.55;4.53;;;11.00;99.90;;;;;;5076533;28;20041;-77
2022/11/15 00:51:21;;;;;;;6.43;3.75;;;11.00;99.90;;;;;;5077040;28;20063;-76
2022/11/15 00:53:47;;;;;;;7.32;4.05;;;11.10;99.90;;;;;;5077094;28;20040;-77
2022/11/15 00:56:13;;;;;;;6.63;4.35;;;11.10;99.90;;;;;;5077231;28;20377;-77
2022/11/15 00:58:38;;;;;;;5.90;3.95;;;11.00;99.90;;;;;;5075679;28;20043;-76
2022/11/15 01:01:12;;;;;;;6.60;3.53;;;11.10;99.90;;;;;;5075598;28;20048;-76
2022/11/15 01:03:39;;;;;;;6.85;3.83;;;11.00;99.90;;;;;;5076803;28;20524;-77
2022/11/15 01:06:06;;;;;;;6.35;3.50;;;11.10;99.90;;;;;;5075107;28;20526;-77
2022/11/15 01:08:32;;;;;;;7.00;4.07;;;11.00;99.90;;;;;;5075491;28;20052;-77
2022/11/15 01:11:06;;;;;;;6.72;4.47;;;11.00;99.90;;;;;;5076639;28;20033;-77
2022/11/15 01:13:33;;;;;;;6.38;3.95;;;11.00;99.90;;;;;;5075567;28;20568;-77
2022/11/15 01:16:05;;;;;;;12.02;4.57;;;11.00;99.90;;;;;;5076840;28;20115;-75
2022/11/15 01:18:30;;;;;;;6.13;3.92;;;11.00;99.90;;;;;;5076808;28;20044;-76
2022/11/15 01:20:56;;;;;;;6.60;3.88;;;10.90;99.90;;;;;;5076800;28;20487;-77
2022/11/15 01:23:22;;;;;;;6.13;3.78;;;10.90;99.90;;;;;;5092019;28;20051;-77
2022/11/15 01:25:48;;;;;;;6.72;3.90;;;10.80;99.90;;;;;;5076427;28;20060;-77
2022/11/15 01:28:13;;;;;;;4.35;2.95;;;10.70;99.90;;;;;;5076486;28;20483;-76
2022/11/15 01:30:39;;;;;;;5.93;3.75;;;10.80;99.90;;;;;;5075264;28;20037;-77
2022/11/15 01:33:05;;;;;;;5.82;3.70;;;10.90;99.90;;;;;;5076370;28;20031;-77
2022/11/15 01:35:31;;;;;;;6.15;3.67;;;10.90;99.90;;;;;;5076383;28;20036;-77
2022/11/15 01:37:57;;;;;;;4.63;3.00;;;10.90;99.90;;;;;;5076580;28;20076;-77
2022/11/15 01:40:23;;;;;;;8.27;3.30;;;11.00;99.90;;;;;;5076214;28;20097;-77
2022/11/15 01:42:48;;;;;;;4.95;2.97;;;11.10;99.90;;;;;;5076564;28;20036;-76
2022/11/15 01:45:15;;;;;;;5.28;3.28;;;11.10;99.90;;;;;;5074961;28;20033;-77
2022/11/15 01:47:48;;;;;;;5.20;2.85;;;11.10;99.90;;;;;;5076088;28;20043;-75
2022/11/15 01:50:19;;;;;;;4.68;3.35;;;11.10;99.90;;;;;;5091869;28;20040;-77
2022/11/15 01:52:45;;;;;;;4.90;3.63;;;11.10;99.90;;;;;;5076114;28;20029;-76
2022/11/15 01:55:13;;;;;;;7.40;3.10;;;11.10;99.90;;;;;;5075950;28;20098;-77
2022/11/15 01:57:42;;;;;;;6.30;3.80;;;11.00;99.90;;;;;;5075888;28;20037;-77
2022/11/15 02:00:08;;;;;;;7.97;4.30;;;11.00;99.90;;;;;;5074503;28;20048;-76
2022/11/15 02:02:36;;;;;;;9.93;5.60;;;10.90;99.90;;;;;;5076164;28;20055;-76
2022/11/15 02:05:03;;;;;;;10.52;5.93;;;11.00;99.90;;;;;;5075836;28;20032;-76
2022/11/15 02:07:31;;;;;;;14.00;7.53;;;10.90;99.90;;;;;;5075875;28;20044;-72
2022/11/15 02:10:04;;;;;;;12.25;7.18;;;10.90;99.90;;;;;;5075862;28;20107;-77
2022/11/15 02:12:29;;;;;;;11.38;6.38;;;11.00;99.90;;;;;;5075974;28;20048;-74
2022/11/15 02:14:56;;;;;;;14.02;5.13;;;11.00;99.90;;;;;;5074319;28;20442;-77
2022/11/15 02:17:36;;;;;;;7.15;4.28;;;10.90;99.90;;;;;;5091196;28;20037;-76
2022/11/15 02:20:20;;;;;;;9.30;4.82;;;10.90;99.90;;;;;;5074366;28;20511;-75
2022/11/15 02:23:12;;;;;;;8.73;5.30;;;11.00;99.90;;;;;;5075535;28;20040;-71
2022/11/15 02:25:47;;;;;;;12.13;6.75;;;10.90;99.90;;;;;;5027818;28;20089;-76
2022/11/15 02:28:39;;;;;;;12.63;7.30;;;10.80;99.90;;;;;;5075367;28;20049;-72
2022/11/15 02:31:11;;;;;;;14.32;8.52;;;10.80;99.90;;;;;;5075737;28;20498;-76
2022/11/15 02:34:01;;;;;;;15.88;9.55;;;10.80;99.90;;;;;;5075170;28;20537;-71
2022/11/15 02:36:45;;;;;;;13.70;7.82;;;10.70;99.90;;;;;;5075242;28;20376;-72
2022/11/15 02:39:25;;;;;;;13.95;7.72;;;10.70;99.90;;;;;;5073836;28;20036;-71
2022/11/15 02:42:04;;;;;;;11.70;7.22;;;10.70;99.90;;;;;;5074794;28;20040;-71
2022/11/15 02:44:33;;;;;;;9.25;6.15;;;10.70;99.90;;;;;;5074428;28;20106;-71
2022/11/15 02:47:13;;;;;;;9.40;6.30;;;10.50;99.90;;;;;;5075174;28;20060;-72
2022/11/15 02:49:53;;;;;;;11.35;6.90;;;10.50;99.90;;;;;;5075033;28;20055;-76
2022/11/15 02:52:21;;;;;;;11.80;7.45;;;10.50;99.90;;;;;;5073597;28;20032;-75
2022/11/15 02:54:59;;;;;;;16.52;8.07;;;10.40;99.90;;;;;;5074856;28;20051;-71
2022/11/15 02:57:43;;;;;;;12.30;7.20;;;10.50;99.90;;;;;;5074925;28;20399;-76
2022/11/15 03:00:14;;;;;;;8.57;5.72;;;10.50;99.90;;;;;;5073043;28;20036;-76
2022/11/15 03:02:40;;;;;;;9.85;6.68;;;10.60;99.90;;;;;;5074552;28;20052;-71
2022/11/15 03:05:42;;;;;;;15.05;7.82;;;10.60;99.90;;;;;;5073397;28;20032;-76
2022/11/15 03:08:25;;;;;;;13.65;8.55;;;10.60;99.90;;;;;;5072924;28;20044;-76
2022/11/15 03:11:15;;;;;;;14.68;8.85;;;10.60;99.90;;;;;;5074457;28;20571;-76
2022/11/15 03:14:02;;;;;;;14.95;8.93;;;10.60;99.90;;;;;;5073532;28;20028;-72
2022/11/15 03:16:37;;;;;;;17.20;8.60;;;10.60;99.90;;;;;;5073508;28;20071;-77
2022/11/15 03:19:11;;;;;;;12.90;8.27;;;10.60;99.90;;;;;;5073223;28;20032;-77
2022/11/15 03:21:40;;;;;;;16.85;9.50;;;10.60;99.90;;;;;;5074279;28;20055;-77
2022/11/15 03:24:07;;;;;;;14.13;8.93;;;10.60;99.90;;;;;;5072990;28;20037;-77
2022/11/15 03:26:37;;;;;;;15.90;8.15;;;10.60;99.90;;;;;;5074414;28;20036;-77
2022/11/15 03:29:22;;;;;;;14.03;8.17;;;10.50;99.90;;;;;;5074497;28;20865;-77
2022/11/15 03:31:54;;;;;;;11.13;8.32;;;10.50;99.90;;;;;;5072875;28;20283;-76
2022/11/15 03:34:20;;;;;;;12.48;8.38;;;10.50;99.90;;;;;;5074162;28;20082;-77
2022/11/15 03:36:48;;;;;;;11.20;7.97;;;10.50;99.90;;;;;;5074152;28;20040;-78
2022/11/15 03:39:14;;;;;;;12.23;7.75;;;10.50;99.90;;;;;;5074252;28;20032;-77
2022/11/15 03:41:47;;;;;;;12.55;8.57;;;10.50;99.90;;;;;;5074231;28;20083;-77
2022/11/15 03:44:25;;;;;;;11.35;7.50;;;10.50;99.90;;;;;;5074409;28;20035;-77
2022/11/15 03:47:14;;;;;;;15.90;8.52;;;10.50;99.90;;;;;;5074113;28;20123;-77
2022/11/15 03:49:45;;;;;;;12.15;7.78;;;10.60;99.90;;;;;;5066792;28;20037;-75
2022/11/15 03:52:11;;;;;;;12.63;7.70;;;10.60;99.90;;;;;;5074020;28;20033;-76
2022/11/15 03:54:47;;;;;;;11.68;7.90;;;10.70;99.90;;;;;;5072564;28;20063;-71
2022/11/15 03:57:12;;;;;;;13.80;8.93;;;10.60;99.90;;;;;;5072751;28;20032;-77
2022/11/15 03:59:38;;;;;;;10.48;7.82;;;10.60;99.90;;;;;;5072638;28;20043;-77
2022/11/15 04:02:04;;;;;;;12.38;8.35;;;10.60;99.90;;;;;;5072864;28;20093;-77
2022/11/15 04:04:30;;;;;;;15.45;9.15;;;10.60;99.90;;;;;;5073998;28;20043;-77
2022/11/15 04:06:55;;;;;;;16.25;9.02;;;10.60;99.90;;;;;;5073935;28;20044;-77
2022/11/15 04:09:21;;;;;;;14.27;9.20;;;10.50;99.90;;;;;;5074184;28;20037;-77
2022/11/15 04:11:47;;;;;;;18.33;10.13;;;10.60;99.90;;;;;;5073663;28;20048;-71
2022/11/15 04:14:13;;;;;;;15.90;10.30;;;10.50;99.90;;;;;;5073897;28;20036;-77
2022/11/15 04:16:38;;;;;;;12.98;9.00;;;10.60;99.90;;;;;;5073822;28;20044;-72
2022/11/15 04:24:33;;;;;;;21.52;10.88;;;10.50;99.90;;;;;;5055378;28;20086;-77
2022/11/15 04:26:59;;;;;;;20.42;10.75;;;10.60;99.90;;;;;;5055338;28;20136;-73
2022/11/15 04:29:36;;;;;;;19.05;11.80;;;10.60;99.90;;;;;;5056652;28;20047;-71
2022/11/15 04:32:04;;;;;;;17.02;10.95;;;10.60;99.90;;;;;;5057513;28;20198;-72
2022/11/15 04:34:31;;;;;;;36.95;11.27;;;10.50;99.90;;;;;;5056509;28;20033;-76
2022/11/15 04:37:12;;;;;;;69.70;10.93;;;10.50;99.90;;;;;;5057577;28;20037;-77
2022/11/15 04:39:39;;;;;;;31.65;11.77;;;10.50;99.90;;;;;;5057456;28;20049;-71
2022/11/15 04:42:05;;;;;;;41.97;11.27;;;10.40;99.90;;;;;;5056128;28;20055;-77
2022/11/15 04:44:30;;;;;;;84.10;10.30;;;10.40;99.90;;;;;;5057348;28;20485;-76
2022/11/15 04:46:56;;;;;;;82.32;10.32;;;10.40;99.90;;;;;;5055977;28;20040;-72
2022/11/15 04:49:22;;;;;;;26.30;11.98;;;10.40;99.90;;;;;;5057306;28;20070;-75
2022/11/15 04:51:48;;;;;;;27.45;10.82;;;10.40;99.90;;;;;;5057222;28;20500;-77
2022/11/15 04:54:14;;;;;;;30.95;10.57;;;10.40;99.90;;;;;;5060597;28;20116;-76
2022/11/15 04:56:39;;;;;;;38.85;11.20;;;10.40;99.90;;;;;;5074933;28;20056;-75
2022/11/15 04:59:05;;;;;;;32.95;11.25;;;10.40;99.90;;;;;;5093115;28;20518;-76
2022/11/15 05:01:31;;;;;;;20.70;11.45;;;10.40;99.90;;;;;;5092572;28;20071;-76
2022/11/15 05:06:41;;;;;;;21.48;12.25;;;10.40;99.90;;;;;;5076851;28;20082;-71
2022/11/15 05:09:07;;;;;;;20.90;12.35;;;10.40;99.90;;;;;;5076938;28;20029;-71
2022/11/15 05:11:33;;;;;;;21.67;11.77;;;10.40;99.90;;;;;;5091980;28;20048;-72
2022/11/15 05:13:59;;;;;;;17.50;11.65;;;10.40;99.90;;;;;;5091533;28;20036;-72
2022/11/15 05:16:24;;;;;;;34.83;10.80;;;10.40;99.90;;;;;;5075926;28;20067;-76
2022/11/15 05:18:51;;;;;;;21.77;11.00;;;10.40;99.90;;;;;;5075558;28;20056;-76
2022/11/15 05:21:17;;;;;;;19.50;10.27;;;10.40;99.90;;;;;;5091089;28;20052;-76
2022/11/15 05:23:43;;;;;;;16.25;10.43;;;10.40;99.90;;;;;;5091170;28;20033;-76
2022/11/15 05:26:10;;;;;;;21.35;10.68;;;10.40;99.90;;;;;;5091452;28;20045;-72
2022/11/15 05:28:36;;;;;;;17.88;11.50;;;10.40;99.90;;;;;;5075394;28;20090;-76
2022/11/15 05:31:12;;;;;;;36.15;11.23;;;10.40;99.90;;;;;;5075048;28;20025;-76
2022/11/15 05:33:39;;;;;;;17.48;10.85;;;10.40;99.90;;;;;;5075502;28;20392;-72
2022/11/15 05:36:38;;;;;;;24.80;11.10;;;10.40;99.90;;;;;;5073708;28;20500;-76
2022/11/15 05:39:06;;;;;;;21.52;12.15;;;10.40;99.90;;;;;;5068591;28;20297;-76
2022/11/15 05:41:41;;;;;;;18.48;10.90;;;10.40;99.90;;;;;;5074668;28;20043;-76
2022/11/15 05:44:10;;;;;;;18.98;12.05;;;10.40;99.90;;;;;;5075201;28;20032;-76
2022/11/15 05:46:39;;;;;;;19.10;11.40;;;10.40;99.90;;;;;;5075238;28;20028;-72
2022/11/15 05:49:09;;;;;;;19.73;11.02;;;10.40;99.90;;;;;;5073902;28;20442;-76
2022/11/15 05:51:35;;;;;;;41.28;9.50;;;10.40;99.90;;;;;;5075099;28;20055;-72
2022/11/15 05:54:02;;;;;;;15.65;10.50;;;10.40;99.90;;;;;;5073541;28;20036;-76
2022/11/15 05:56:29;;;;;;;23.15;11.10;;;10.40;99.90;;;;;;5074074;28;20040;-72
2022/11/15 05:58:56;;;;;;;17.02;11.38;;;10.40;99.90;;;;;;5074866;28;20025;-72
2022/11/15 06:01:24;;;;;;;19.58;11.40;;;10.40;99.90;;;;;;5074272;28;20150;-76
2022/11/15 06:03:50;;;;;;;40.90;10.18;;;10.40;99.90;;;;;;5073515;28;20470;-72
2022/11/15 06:06:16;;;;;;;25.15;10.15;;;10.40;99.90;;;;;;5074957;28;20132;-76
2022/11/15 06:08:41;;;;;;;61.63;9.50;;;10.30;99.90;;;;;;5074861;28;20407;-75
2022/11/15 06:11:08;;;;;;;25.80;10.35;;;10.40;99.90;;;;;;5028199;28;1288277;-72
2022/11/15 06:13:34;;;;;;;29.63;9.90;;;10.30;99.90;;;;;;5075801;28;20418;-72
2022/11/15 06:16:00;;;;;;;34.20;9.93;;;10.30;99.90;;;;;;5075796;28;20053;-72
2022/11/15 06:18:26;;;;;;;20.48;10.38;;;10.30;99.90;;;;;;5074336;28;20089;-71
2022/11/15 06:20:52;;;;;;;48.05;10.43;;;10.30;99.90;;;;;;5075639;28;20052;-76
2022/11/15 06:23:18;;;;;;;24.00;13.65;;;10.30;99.90;;;;;;5074191;28;20580;-71
2022/11/15 06:25:44;;;;;;;24.05;13.70;;;10.30;99.90;;;;;;5075532;28;20062;-76
2022/11/15 06:28:09;;;;;;;19.83;11.75;;;10.30;99.90;;;;;;5075513;28;20071;-72
2022/11/15 06:30:35;;;;;;;20.05;12.68;;;10.30;99.90;;;;;;5089949;28;20055;-76
2022/11/15 06:33:03;;;;;;;37.40;21.08;;;10.40;99.90;;;;;;5073974;28;20046;-76
2022/11/15 06:35:29;;;;;;;30.13;17.27;;;10.40;99.90;;;;;;5073855;28;20068;-72
2022/11/15 06:37:56;;;;;;;17.98;11.82;;;10.40;99.90;;;;;;5070453;28;20048;-74
2022/11/15 06:40:22;;;;;;;17.92;10.75;;;10.30;99.90;;;;;;5071960;28;20038;-75
2022/11/15 06:42:47;;;;;;;33.17;20.55;;;10.30;99.90;;;;;;5072466;28;20052;-72
2022/11/15 06:45:13;;;;;;;64.68;14.82;;;10.40;99.90;;;;;;5072081;28;20054;-72
2022/11/15 06:47:48;;;;;;;23.30;12.75;;;10.30;99.90;;;;;;5073197;28;20056;-77
2022/11/15 06:50:14;;;;;;;18.42;11.30;;;10.30;99.90;;;;;;5072881;28;20055;-76
2022/11/15 06:52:40;;;;;;;31.50;11.38;;;10.30;99.90;;;;;;5074325;28;20504;-75
2022/11/15 06:55:06;;;;;;;45.90;19.23;;;10.40;99.90;;;;;;5090418;28;20097;-75
2022/11/15 06:57:32;;;;;;;27.27;13.43;;;10.40;99.90;;;;;;5074385;28;20365;-75
2022/11/15 06:59:58;;;;;;;30.33;16.83;;;10.40;99.90;;;;;;5090427;28;20047;-74
2022/11/15 07:02:23;;;;;;;18.65;11.07;;;10.40;99.90;;;;;;5073311;28;20507;-76
2022/11/15 07:04:51;;;;;;;37.33;19.45;;;10.40;99.90;;;;;;5073308;28;20035;-76
2022/11/15 07:07:17;;;;;;;24.45;13.40;;;10.40;99.90;;;;;;5074606;28;20036;-76
2022/11/15 07:09:43;;;;;;;31.15;16.30;;;10.40;99.90;;;;;;5074551;28;20042;-76
2022/11/15 07:12:16;;;;;;;32.47;17.48;;;10.40;99.90;;;;;;5074495;28;20044;-75
2022/11/15 07:14:42;;;;;;;20.15;11.43;;;10.50;99.90;;;;;;5073343;28;20052;-76
2022/11/15 07:17:08;;;;;;;15.77;10.05;;;10.50;99.90;;;;;;5073117;28;20413;-74
2022/11/15 07:19:34;;;;;;;18.30;10.95;;;10.50;99.90;;;;;;5074369;28;20455;-76
2022/11/15 07:22:00;;;;;;;16.40;10.25;;;10.50;99.90;;;;;;5074268;28;20128;-76
2022/11/15 07:24:26;;;;;;;15.52;10.32;;;10.50;99.90;;;;;;5072941;28;20060;-75
2022/11/15 07:26:51;;;;;;;20.60;12.35;;;10.50;99.90;;;;;;5074198;28;20090;-76
2022/11/15 07:29:17;;;;;;;20.17;11.05;;;10.60;99.90;;;;;;5072733;28;20075;-76
2022/11/15 07:31:43;;;;;;;18.73;11.15;;;10.50;99.90;;;;;;5072884;28;20040;-75
2022/11/15 07:34:09;;;;;;;18.75;10.55;;;10.60;99.90;;;;;;5072883;28;20487;-72
2022/11/15 07:36:35;;;;;;;15.32;10.27;;;10.60;99.90;;;;;;5073175;28;20043;-76
2022/11/15 07:39:01;;;;;;;25.23;12.25;;;10.60;99.90;;;;;;5074120;28;20040;-76
2022/11/15 07:41:27;;;;;;;23.75;12.35;;;10.60;99.90;;;;;;5074076;28;20048;-75
2022/11/15 07:43:53;;;;;;;18.83;11.00;;;10.50;99.90;;;;;;5089574;28;20416;-76
2022/11/15 07:46:18;;;;;;;21.58;10.75;;;10.50;99.90;;;;;;5074080;28;20032;-71
2022/11/15 07:48:44;;;;;;;18.60;11.20;;;10.60;99.90;;;;;;5072925;28;20033;-77
2022/11/15 07:51:13;;;;;;;17.08;10.57;;;10.60;99.90;;;;;;5074110;28;20049;-74
2022/11/15 07:53:41;;;;;;;16.80;10.40;;;10.80;99.90;;;;;;5072614;28;20039;-72
2022/11/15 07:56:08;;;;;;;15.88;10.07;;;11.30;99.90;;;;;;5072405;28;20044;-75
2022/11/15 07:58:34;;;;;;;18.50;10.40;;;11.20;99.90;;;;;;5072301;28;20033;-74
2022/11/15 08:01:06;;;;;;;15.90;10.10;;;11.10;99.90;;;;;;5071985;28;20395;-73
2022/11/15 08:03:33;;;;;;;14.93;9.50;;;11.10;99.90;;;;;;5074250;28;20048;-74
2022/11/15 08:05:58;;;;;;;13.30;8.43;;;11.20;99.90;;;;;;5073999;28;20045;-70
2022/11/15 08:08:24;;;;;;;15.50;9.20;;;11.20;99.90;;;;;;5074002;28;20036;-76
2022/11/15 08:10:50;;;;;;;12.93;7.78;;;11.20;99.90;;;;;;5074036;28;20067;-74
2022/11/15 08:13:16;;;;;;;15.98;9.10;;;10.90;99.90;;;;;;5073779;28;20438;-70
2022/11/15 08:15:43;;;;;;;13.73;8.75;;;11.10;99.90;;;;;;5073780;28;20043;-72
2022/11/15 08:18:15;;;;;;;15.27;9.27;;;11.00;99.90;;;;;;5073661;28;20055;-73
2022/11/15 08:20:42;;;;;;;14.25;9.18;;;10.90;99.90;;;;;;5073538;28;20078;-73
2022/11/15 08:23:09;;;;;;;16.75;8.90;;;10.80;99.90;;;;;;5073650;28;20080;-73
2022/11/15 08:25:36;;;;;;;15.38;9.13;;;10.90;99.90;;;;;;5068723;28;20077;-75
2022/11/15 08:28:04;;;;;;;14.80;8.90;;;10.80;99.90;;;;;;5051577;28;20115;-74
2022/11/15 08:30:34;;;;;;;13.32;8.13;;;10.80;99.90;;;;;;5052368;28;20071;-74
2022/11/15 08:33:00;;;;;;;14.77;8.82;;;11.00;99.90;;;;;;5053574;28;20036;-74
2022/11/15 08:35:26;;;;;;;14.10;8.98;;;11.00;99.90;;;;;;5053573;28;20512;-73
2022/11/15 08:37:53;;;;;;;15.15;9.32;;;10.90;99.90;;;;;;5053391;28;20052;-74
2022/11/15 08:40:19;;;;;;;14.43;8.57;;;10.90;99.90;;;;;;5053328;28;20126;-70
2022/11/15 08:42:48;;;;;;;12.15;7.50;;;10.90;99.90;;;;;;5053315;28;20107;-73
2022/11/15 08:45:14;;;;;;;13.18;8.38;;;10.90;99.90;;;;;;5052171;28;20392;-74
2022/11/15 08:47:41;;;;;;;13.93;8.20;;;11.00;99.90;;;;;;5055442;28;20112;-74
2022/11/15 08:50:08;;;;;;;13.18;7.93;;;11.00;99.90;;;;;;5072940;28;20082;-73
2022/11/15 08:52:33;;;;;;;12.20;8.20;;;11.00;99.90;;;;;;5071838;28;20082;-74
2022/11/15 08:55:00;;;;;;;13.77;8.52;;;11.10;99.90;;;;;;5072059;28;20503;-74
2022/11/15 08:57:29;;;;;;;12.48;8.20;;;11.10;99.90;;;;;;5073382;28;20123;-73
2022/11/15 08:59:55;;;;;;;13.70;7.97;;;11.20;99.90;;;;;;5073107;28;20036;-73
2022/11/15 09:02:20;;;;;;;13.10;7.93;;;11.40;99.90;;;;;;5071612;28;20507;-75
2022/11/15 09:04:46;;;;;;;11.55;6.85;;;11.40;99.90;;;;;;5071205;28;20033;-73
2022/11/15 09:07:13;;;;;;;9.52;6.50;;;11.50;99.90;;;;;;5075992;28;20185;-76
2022/11/15 09:09:39;;;;;;;10.85;6.85;;;11.40;99.90;;;;;;5074872;28;20036;-73
2022/11/15 09:12:06;;;;;;;17.08;9.43;;;11.50;99.90;;;;;;5075188;28;20090;-76
2022/11/15 09:14:32;;;;;;;17.35;7.78;;;11.50;99.90;;;;;;5076485;28;20071;-76
2022/11/15 09:16:58;;;;;;;16.75;8.98;;;11.80;99.90;;;;;;5075324;28;20102;-78
2022/11/15 09:19:24;;;;;;;23.20;11.77;;;11.60;99.90;;;;;;5076861;28;20492;-78
2022/11/15 09:21:50;;;;;;;23.20;11.68;;;11.70;99.90;;;;;;5076623;28;20148;-78
2022/11/15 09:24:17;;;;;;;17.27;9.07;;;11.90;99.90;;;;;;5076746;28;20120;-78
2022/11/15 09:26:43;;;;;;;12.13;7.22;;;11.90;99.90;;;;;;5075401;28;20493;-77
2022/11/15 09:29:09;;;;;;;10.90;6.88;;;11.80;99.90;;;;;;5075321;28;20412;-78
2022/11/15 09:31:35;;;;;;;16.88;8.50;;;11.80;99.90;;;;;;5076645;28;20028;-78
2022/11/15 09:34:00;;;;;;;14.15;8.15;;;11.80;99.90;;;;;;5076517;28;20032;-70
2022/11/15 09:36:26;;;;;;;13.00;7.55;;;11.80;99.90;;;;;;5076278;28;20565;-77
2022/11/15 09:38:52;;;;;;;12.88;7.68;;;12.00;99.90;;;;;;5076439;28;20040;-77
2022/11/15 09:41:53;;;;;;;12.02;6.88;;;11.90;99.90;;;;;;5075159;28;20385;-70
2022/11/15 09:44:51;;;;;;;10.45;5.70;;;11.90;99.90;;;;;;5057468;28;20044;-77
2022/11/15 09:47:29;;;;;;;13.52;6.38;;;11.80;99.90;;;;;;5074984;28;20402;-72
2022/11/15 09:49:58;;;;;;;17.00;7.68;;;11.90;99.90;;;;;;5076300;28;20044;-77
2022/11/15 09:52:24;;;;;;;19.33;8.98;;;11.90;99.90;;;;;;5076234;28;20029;-75
2022/11/15 09:54:51;;;;;;;9.77;6.10;;;11.90;99.90;;;;;;5091851;28;20524;-76
2022/11/15 09:57:39;;;;;;;17.25;7.32;;;11.90;99.90;;;;;;5076058;28;20066;-78
2022/11/15 10:00:14;;;;;;;19.35;8.48;;;11.90;99.90;;;;;;5074482;28;20067;-77
2022/11/15 10:02:55;;;;;;;15.35;7.05;;;12.10;99.90;;;;;;5075827;28;20102;-78
2022/11/15 10:05:23;;;;;;;11.40;7.20;;;12.10;99.90;;;;;;5074743;28;20487;-78
2022/11/15 10:08:05;;;;;;;14.07;8.23;;;12.10;99.90;;;;;;5075860;28;20403;-70
2022/11/15 10:10:40;;;;;;;14.05;6.82;;;12.10;99.90;;;;;;5074623;28;20033;-77
2022/11/15 10:13:22;;;;;;;11.98;7.97;;;12.10;99.90;;;;;;5074818;28;20055;-78
2022/11/15 10:15:49;;;;;;;21.23;10.18;;;12.00;99.90;;;;;;5075378;28;20495;-70
2022/11/15 10:18:35;;;;;;;13.35;7.45;;;12.00;99.90;;;;;;5073991;28;20032;-77
2022/11/15 10:21:32;;;;;;;9.55;5.78;;;12.10;99.90;;;;;;5075772;28;20127;-77
2022/11/15 10:23:58;;;;;;;9.80;5.85;;;12.10;99.90;;;;;;5075620;28;20036;-78
2022/11/15 10:26:24;;;;;;;13.98;6.40;;;12.10;99.90;;;;;;5074111;28;20035;-77
2022/11/15 10:28:50;;;;;;;10.15;6.10;;;12.20;99.90;;;;;;5075612;28;20040;-78
2022/11/15 10:31:28;;;;;;;13.77;6.28;;;12.20;99.90;;;;;;5074161;28;20040;-78
2022/11/15 10:34:19;;;;;;;19.17;6.65;;;12.20;99.90;;;;;;5075276;28;20480;-77
2022/11/15 10:36:59;;;;;;;11.55;6.10;;;12.20;99.90;;;;;;5075180;28;20508;-78
2022/11/15 10:39:25;;;;;;;12.25;6.10;;;12.20;99.90;;;;;;5073962;28;20130;-77
2022/11/15 10:41:50;;;;;;;11.95;7.07;;;12.20;99.90;;;;;;5091049;28;20445;-77
2022/11/15 10:44:16;;;;;;;8.60;5.70;;;12.20;99.90;;;;;;5073996;28;20419;-78
2022/11/15 10:46:46;;;;;;;9.93;5.60;;;12.30;99.90;;;;;;5073895;28;20041;-78
2022/11/15 10:49:18;;;;;;;11.43;6.63;;;12.30;99.90;;;;;;5075075;28;20089;-70
2022/11/15 10:51:49;;;;;;;9.82;5.82;;;12.30;99.90;;;;;;5074608;28;20642;-78
2022/11/15 10:54:27;;;;;;;11.88;5.95;;;12.30;99.90;;;;;;5075170;28;20039;-77
2022/11/15 10:56:58;;;;;;;13.27;6.55;;;12.30;99.90;;;;;;5074434;28;20511;-77
2022/11/15 10:59:27;;;;;;;8.55;6.05;;;12.30;99.90;;;;;;5074938;28;20070;-78
2022/11/15 11:01:54;;;;;;;11.30;5.88;;;12.30;99.90;;;;;;5074504;28;20048;-76
2022/11/15 11:04:23;;;;;;;8.27;5.82;;;12.30;99.90;;;;;;5074667;28;20060;-70
2022/11/15 11:07:00;;;;;;;9.13;5.93;;;12.30;99.90;;;;;;5074575;28;20044;-71
2022/11/15 11:09:35;;;;;;;8.48;5.90;;;12.30;99.90;;;;;;5073256;28;20028;-70
2022/11/15 11:12:02;;;;;;;9.63;6.57;;;12.30;99.90;;;;;;5073338;28;20139;-77
2022/11/15 11:14:34;;;;;;;8.45;5.45;;;12.30;99.90;;;;;;5074573;28;20116;-78
2022/11/15 11:17:17;;;;;;;10.80;6.03;;;12.40;99.90;;;;;;5074588;28;20063;-70
2022/11/15 11:20:03;;;;;;;10.02;6.75;;;12.40;99.90;;;;;;5074316;28;20029;-78
2022/11/15 11:22:50;;;;;;;10.40;6.13;;;12.40;99.90;;;;;;5074199;28;20051;-70
2022/11/15 11:25:28;;;;;;;10.13;5.88;;;12.40;99.90;;;;;;5073284;28;20484;-78
2022/11/15 11:28:17;;;;;;;8.85;5.45;;;12.40;99.90;;;;;;5073856;28;20151;-73
2022/11/15 11:31:20;;;;;;;8.20;5.78;;;12.50;99.90;;;;;;5074155;28;20044;-77
2022/11/15 11:34:29;;;;;;;10.65;5.63;;;12.60;99.90;;;;;;5074213;28;20097;-77
2022/11/15 11:37:36;;;;;;;7.78;5.32;;;12.60;99.90;;;;;;5072924;28;20042;-77
2022/11/15 11:40:20;;;;;;;11.52;7.35;;;12.70;99.90;;;;;;5068975;28;20040;-77
2022/11/15 11:42:49;;;;;;;11.90;7.60;;;12.80;99.90;;;;;;5072797;28;20495;-77
2022/11/15 11:45:43;;;;;;;9.40;5.43;;;12.80;99.90;;;;;;5074143;28;20116;-77
2022/11/15 11:48:39;;;;;;;10.82;5.25;;;12.80;99.90;;;;;;5073905;28;20082;-70
2022/11/15 11:51:33;;;;;;;9.20;5.82;;;12.80;99.90;;;;;;5072879;28;20036;-70
2022/11/15 11:54:22;;;;;;;15.15;9.15;;;12.90;99.90;;;;;;5073971;28;20481;-71
2022/11/15 11:56:50;;;;;;;35.47;19.80;;;12.80;99.90;;;;;;5074034;28;20041;-78
2022/11/15 11:59:54;;;;;;;29.63;16.67;;;12.90;99.90;;;;;;5074126;28;20036;-78
2022/11/15 12:02:36;;;;;;;27.95;16.98;;;12.90;99.90;;;;;;5073334;28;20412;-73
2022/11/15 12:05:28;;;;;;;19.25;11.57;;;12.90;99.90;;;;;;5073966;28;20123;-78
2022/11/15 12:08:03;;;;;;;21.42;12.57;;;12.90;99.90;;;;;;5069638;28;20047;-78
2022/11/15 12:10:34;;;;;;;19.67;11.60;;;12.90;99.90;;;;;;5072953;28;20032;-71
2022/11/15 12:13:13;;;;;;;14.02;9.05;;;12.90;99.90;;;;;;5073794;28;20495;-71
2022/11/15 12:15:56;;;;;;;19.15;9.60;;;12.90;99.90;;;;;;5072697;28;20439;-72
2022/11/15 12:18:22;;;;;;;11.98;7.25;;;12.90;99.90;;;;;;5073841;28;20497;-78
2022/11/15 12:20:59;;;;;;;11.85;7.53;;;13.00;99.90;;;;;;5073636;28;20045;-71
2022/11/15 12:23:34;;;;;;;11.52;7.20;;;13.00;99.90;;;;;;5072444;28;20036;-80
2022/11/15 12:26:09;;;;;;;11.68;7.45;;;13.00;99.90;;;;;;5072362;28;20060;-77
2022/11/15 12:28:40;;;;;;;12.15;7.00;;;13.00;99.90;;;;;;5071101;28;20055;-77
2022/11/15 12:31:06;;;;;;;12.40;6.53;;;13.10;99.90;;;;;;5059484;28;20036;-77
2022/11/15 12:33:43;;;;;;;13.70;8.35;;;13.10;99.90;;;;;;5051300;28;20037;-77
2022/11/15 12:36:29;;;;;;;15.02;8.85;;;13.10;99.90;;;;;;5053551;28;20056;-77
2022/11/15 12:39:00;;;;;;;10.82;6.82;;;13.10;99.90;;;;;;5052312;28;20068;-77
2022/11/15 12:41:32;;;;;;;12.50;7.38;;;13.00;99.90;;;;;;5056787;28;20138;-77
2022/11/15 12:44:01;;;;;;;9.88;6.13;;;13.00;99.90;;;;;;5073419;28;20123;-69
2022/11/15 12:46:29;;;;;;;18.15;8.88;;;13.00;99.90;;;;;;5077623;28;20109;-77
2022/11/15 12:49:00;;;;;;;14.00;7.70;;;13.10;99.90;;;;;;5076140;28;20191;-78
2022/11/15 12:51:46;;;;;;;10.88;6.90;;;13.00;99.90;;;;;;5077235;28;20035;-75
2022/11/15 12:54:24;;;;;;;10.38;6.53;;;13.00;99.90;;;;;;5077117;28;20033;-72
2022/11/15 12:57:08;;;;;;;13.32;8.00;;;13.00;99.90;;;;;;5075858;28;20040;-71
2022/11/15 12:59:58;;;;;;;10.68;5.55;;;13.00;99.90;;;;;;5075626;28;20392;-77
2022/11/15 13:02:33;;;;;;;10.63;5.88;;;12.90;99.90;;;;;;5077021;28;20400;-77